Time;durP1;ratioP1;P1;durP2;ratioP2;P2;SDS_P1;SDS_P2;PMS_P1;PMS_P2;Temp;Humidity;BMP_temperature;BMP_pressure;BME280_temperature;BME280_humidity;BME280_pressure;Samples;Min_cycle;Max_cycle;Signal;HPM_P1;HPM_P2
2021/09/17 00:00:49;;;;;;;33.17;23.45;;;;;;;12.43;100.00;101595.53;10524323;28;20063;-80
2021/09/17 00:05:52;;;;;;;31.27;23.35;;;;;;;12.55;100.00;101597.50;10522009;28;20054;-80
2021/09/17 00:10:53;;;;;;;37.35;26.52;;;;;;;12.63;100.00;101588.09;10517010;28;20512;-80
2021/09/17 00:15:55;;;;;;;26.50;20.75;;;;;;;12.48;100.00;101583.53;10513103;28;20048;-80
2021/09/17 00:20:56;;;;;;;26.40;19.73;;;;;;;12.43;100.00;101591.22;10518088;28;20658;-81
2021/09/17 00:25:59;;;;;;;25.90;18.75;;;;;;;12.43;100.00;101580.84;10544846;28;20101;-80
2021/09/17 00:31:00;;;;;;;22.60;16.75;;;;;;;12.44;100.00;101571.34;10502569;28;20064;-80
2021/09/17 00:36:02;;;;;;;29.00;19.67;;;;;;;12.46;100.00;101577.41;10513239;28;20117;-80
2021/09/17 00:41:04;;;;;;;27.98;18.92;;;;;;;12.51;100.00;101572.31;10507019;28;20060;-80
2021/09/17 00:46:05;;;;;;;27.95;20.65;;;;;;;12.57;100.00;101567.22;10513124;28;20059;-80
2021/09/17 00:51:07;;;;;;;31.73;23.23;;;;;;;12.57;100.00;101560.31;10514602;28;20063;-80
2021/09/17 00:56:09;;;;;;;34.42;23.55;;;;;;;12.57;100.00;101564.63;10513833;28;20503;-80
2021/09/17 01:01:11;;;;;;;26.83;19.48;;;;;;;12.60;100.00;101556.91;10543961;28;20064;-80
2021/09/17 01:06:13;;;;;;;27.23;19.58;;;;;;;12.55;100.00;101558.56;10497925;28;20056;-80
2021/09/17 01:11:16;;;;;;;22.65;17.50;;;;;;;12.52;100.00;101553.28;10505939;28;20557;-80
2021/09/17 01:16:18;;;;;;;28.30;18.60;;;;;;;12.60;100.00;101547.41;10521278;28;20048;-80
2021/09/17 01:21:21;;;;;;;27.63;19.08;;;;;;;12.57;100.00;101544.75;10516920;28;20476;-80
2021/09/17 01:26:22;;;;;;;34.35;23.50;;;;;;;12.73;100.00;101535.50;10485219;28;20056;-81
2021/09/17 01:31:24;;;;;;;35.05;21.92;;;;;;;12.67;100.00;101541.47;10499604;28;20075;-80
2021/09/17 01:36:25;;;;;;;30.95;20.40;;;;;;;12.69;100.00;101541.50;10515300;28;20052;-80
2021/09/17 01:41:28;;;;;;;30.02;21.92;;;;;;;12.71;100.00;101542.41;10512124;28;20503;-80
2021/09/17 01:46:29;;;;;;;37.88;24.80;;;;;;;12.76;100.00;101550.25;10516784;28;20449;-80
2021/09/17 01:51:31;;;;;;;36.92;26.80;;;;;;;12.74;100.00;101539.84;10541091;28;20075;-80
2021/09/17 01:56:33;;;;;;;38.55;26.13;;;;;;;12.74;100.00;101530.34;10504130;28;20049;-81
2021/09/17 02:01:35;;;;;;;35.30;24.98;;;;;;;12.69;100.00;101531.97;10528830;28;20056;-80
2021/09/17 02:06:37;;;;;;;36.00;25.73;;;;;;;12.71;100.00;101529.44;10510378;28;20582;-80
2021/09/17 02:11:38;;;;;;;34.53;25.55;;;;;;;12.71;100.00;101532.91;10513463;28;20064;-80
2021/09/17 02:16:41;;;;;;;37.92;25.15;;;;;;;12.78;100.00;101526.09;10514861;28;20404;-80
2021/09/17 02:21:48;;;;;;;36.55;25.02;;;;;;;12.75;100.00;101520.81;10510487;28;20446;-80
2021/09/17 02:26:50;;;;;;;38.13;26.05;;;;;;;12.79;100.00;101509.66;10511982;28;20484;-80
2021/09/17 02:31:51;;;;;;;40.45;26.35;;;;;;;12.84;100.00;101514.91;10521905;28;20530;-80
2021/09/17 02:36:53;;;;;;;42.75;27.95;;;;;;;12.88;100.00;101509.81;10510083;28;20408;-80
2021/09/17 02:41:54;;;;;;;36.38;24.70;;;;;;;12.79;100.00;101512.25;10501250;28;20075;-80
2021/09/17 02:46:56;;;;;;;38.92;25.30;;;;;;;12.82;100.00;101514.91;10526521;28;20086;-80
2021/09/17 02:51:58;;;;;;;39.42;27.38;;;;;;;12.82;100.00;101507.13;10525490;28;20056;-81
2021/09/17 02:56:59;;;;;;;46.03;30.35;;;;;;;12.90;100.00;101505.50;10508651;28;20499;-81
2021/09/17 03:02:01;;;;;;;43.95;30.15;;;;;;;12.91;100.00;101498.59;10509392;28;20079;-80
2021/09/17 03:07:03;;;;;;;48.42;29.77;;;;;;;12.87;100.00;101497.66;10494029;28;20057;-80
2021/09/17 03:12:05;;;;;;;49.10;30.15;;;;;;;12.92;100.00;101493.41;10536125;28;20052;-80
2021/09/17 03:17:08;;;;;;;44.90;29.25;;;;;;;12.94;100.00;101472.66;10517416;28;20049;-80
2021/09/17 03:22:10;;;;;;;53.17;33.55;;;;;;;12.94;100.00;101472.66;10514408;28;20058;-80
2021/09/17 03:27:11;;;;;;;53.97;31.52;;;;;;;12.96;100.00;101468.38;10521894;28;20515;-80
2021/09/17 03:32:13;;;;;;;55.45;35.85;;;;;;;13.03;100.00;101461.53;10504707;28;20052;-80
2021/09/17 03:37:14;;;;;;;101.25;57.55;;;;;;;13.25;100.00;101459.28;10511533;28;20128;-80
2021/09/17 03:42:16;;;;;;;97.47;57.13;;;;;;;13.21;100.00;101470.47;10524460;28;20052;-80
2021/09/17 03:47:18;;;;;;;105.60;60.00;;;;;;;13.23;100.00;101466.19;10507739;28;20048;-80
2021/09/17 03:52:19;;;;;;;73.30;42.90;;;;;;;13.09;100.00;101456.41;10507901;28;20514;-80
2021/09/17 03:57:21;;;;;;;80.80;45.13;;;;;;;13.12;100.00;101462.53;10519774;28;20089;-80
2021/09/17 04:02:23;;;;;;;101.03;57.15;;;;;;;13.21;100.00;101459.22;10508139;28;20489;-80
2021/09/17 04:07:25;;;;;;;96.68;53.65;;;;;;;13.21;100.00;101454.03;10506010;28;20056;-80
2021/09/17 04:12:26;;;;;;;85.53;49.55;;;;;;;13.22;100.00;101455.78;10499920;28;20122;-80
2021/09/17 04:17:28;;;;;;;81.47;46.65;;;;;;;13.19;100.00;101446.19;10503344;28;20454;-80
2021/09/17 04:22:29;;;;;;;79.85;44.90;;;;;;;13.19;100.00;101446.19;10516776;28;20055;-80
2021/09/17 04:27:32;;;;;;;71.70;39.95;;;;;;;13.13;100.00;101450.44;10515996;28;20410;-81
2021/09/17 04:32:33;;;;;;;70.50;40.03;;;;;;;13.14;100.00;101458.22;10521303;28;20060;-80
2021/09/17 04:37:42;;;;;;;65.57;36.47;;;;;;;13.07;100.00;101452.94;10498419;28;20052;-80
2021/09/17 04:42:44;;;;;;;56.35;34.55;;;;;;;13.12;100.00;101448.69;10497975;28;20060;-80
2021/09/17 04:47:46;;;;;;;68.53;38.72;;;;;;;13.17;100.00;101452.22;10518181;28;20064;-80
2021/09/17 04:52:48;;;;;;;76.90;40.42;;;;;;;13.16;100.00;101443.56;10523582;28;20048;-80
2021/09/17 04:57:50;;;;;;;77.15;43.90;;;;;;;13.21;100.00;101444.50;10526022;28;20136;-80
2021/09/17 05:02:51;;;;;;;75.80;45.33;;;;;;;13.21;100.00;101454.03;10526939;28;20071;-79
2021/09/17 05:07:53;;;;;;;70.20;40.88;;;;;;;13.29;100.00;101456.75;10537122;28;20040;-80
2021/09/17 05:12:55;;;;;;;85.90;47.78;;;;;;;13.29;100.00;101456.75;10524228;28;20048;-80
2021/09/17 05:17:56;;;;;;;90.13;51.85;;;;;;;13.43;100.00;101450.88;10520032;28;20044;-80
2021/09/17 05:22:58;;;;;;;113.15;63.50;;;;;;;13.45;100.00;101458.69;10522405;28;20377;-81
2021/09/17 05:27:59;;;;;;;115.70;66.65;;;;;;;13.43;100.00;101445.66;10526280;28;20055;-80
2021/09/17 05:33:02;;;;;;;142.15;80.22;;;;;;;13.79;100.00;101457.38;10536147;28;20059;-80
2021/09/17 05:38:03;;;;;;;130.02;75.28;;;;;;;13.57;100.00;101456.25;10522172;28;20405;-80
2021/09/17 05:43:05;;;;;;;140.27;79.40;;;;;;;13.74;100.00;101451.25;10507052;28;20412;-80
2021/09/17 05:48:06;;;;;;;141.65;81.53;;;;;;;13.90;100.00;101465.31;10522914;28;20049;-80
2021/09/17 05:53:08;;;;;;;145.32;84.53;;;;;;;13.85;100.00;101462.66;10537562;28;20431;-80
2021/09/17 05:58:10;;;;;;;139.13;80.45;;;;;;;13.81;100.00;101462.59;10543835;28;20048;-80
2021/09/17 06:03:11;;;;;;;127.53;74.15;;;;;;;13.75;100.00;101455.59;10526704;28;20052;-80
2021/09/17 06:08:13;;;;;;;127.93;71.95;;;;;;;13.77;100.00;101459.06;10523477;28;20056;-80
2021/09/17 06:13:14;;;;;;;116.65;68.53;;;;;;;13.81;100.00;101453.06;10518881;28;20063;-80
2021/09/17 06:18:16;;;;;;;122.55;72.82;;;;;;;14.01;100.00;101454.16;10498369;28;20312;-81
2021/09/17 06:23:18;;;;;;;130.02;75.40;;;;;;;14.08;100.00;101449.91;10528359;28;20070;-81
2021/09/17 06:28:19;;;;;;;119.95;71.07;;;;;;;14.20;100.00;101459.56;10506834;28;20049;-81
2021/09/17 06:33:20;;;;;;;104.50;67.30;;;;;;;14.29;100.00;101459.63;10497101;28;20384;-80
2021/09/17 06:38:22;;;;;;;93.63;61.47;;;;;;;14.37;100.00;101457.97;10506216;28;20052;-81
2021/09/17 06:43:23;;;;;;;91.13;57.92;;;;;;;14.42;100.00;101451.09;10532895;28;20458;-81
2021/09/17 06:48:25;;;;;;;86.38;56.83;;;;;;;14.53;100.00;101457.28;10515932;28;20050;-81
2021/09/17 06:53:27;;;;;;;78.30;51.35;;;;;;;14.63;100.00;101457.34;10527138;28;20072;-80
2021/09/17 06:58:31;;;;;;;73.60;49.30;;;;;;;14.64;100.00;101454.78;10508422;28;20074;-81
2021/09/17 07:03:33;;;;;;;65.45;44.88;;;;;;;14.65;100.00;101451.31;10540351;28;20135;-80
2021/09/17 07:08:35;;;;;;;63.05;42.33;;;;;;;14.65;100.00;101458.25;10502877;28;20513;-81
2021/09/17 07:13:36;;;;;;;60.80;41.63;;;;;;;14.65;100.00;101458.25;10516686;28;20407;-81
2021/09/17 07:18:38;;;;;;;62.55;41.08;;;;;;;14.62;100.00;101459.09;10528102;28;20059;-80
2021/09/17 07:23:39;;;;;;;54.95;39.67;;;;;;;14.66;100.00;101449.56;10504902;28;20060;-80
2021/09/17 07:28:41;;;;;;;55.38;39.65;;;;;;;14.75;100.00;101445.31;10514211;28;20048;-81
2021/09/17 07:33:43;;;;;;;55.45;38.72;;;;;;;14.88;100.00;101450.59;10522284;28;20055;-81
2021/09/17 07:38:44;;;;;;;53.38;38.70;;;;;;;14.99;100.00;101451.56;10494117;28;20052;-81
2021/09/17 07:43:48;;;;;;;55.45;39.65;;;;;;;15.10;100.00;101452.50;10506451;28;20083;-81
2021/09/17 07:48:49;;;;;;;50.22;38.03;;;;;;;15.15;99.62;101447.31;10508703;28;20117;-81
2021/09/17 07:53:51;;;;;;;56.22;37.55;;;;;;;15.23;97.05;101453.44;10494464;28;20114;-81
2021/09/17 07:58:53;;;;;;;49.40;37.65;;;;;;;15.33;96.01;101450.88;10525976;28;20060;-81
2021/09/17 08:03:54;;;;;;;45.72;33.08;;;;;;;15.50;94.92;101450.09;10508529;28;20392;-81
2021/09/17 08:08:56;;;;;;;42.58;32.72;;;;;;;15.63;91.92;101454.50;10513562;28;20063;-80
2021/09/17 08:13:57;;;;;;;44.47;31.58;;;;;;;15.79;91.19;101455.44;10508549;28;20052;-81
2021/09/17 08:18:59;;;;;;;39.22;30.00;;;;;;;15.90;89.21;101451.13;10516418;28;20064;-80
2021/09/17 08:24:00;;;;;;;42.63;29.02;;;;;;;16.04;88.00;101443.31;10533850;28;20055;-81
2021/09/17 08:29:02;;;;;;;40.13;30.55;;;;;;;16.23;88.55;101445.13;10541717;28;20048;-81
2021/09/17 08:34:04;;;;;;;35.20;29.17;;;;;;;16.25;89.28;101447.72;10489663;28;20056;-80
2021/09/17 08:39:07;;;;;;;33.97;28.38;;;;;;;16.45;89.04;101443.38;10513887;28;20063;-81
2021/09/17 08:44:09;;;;;;;31.02;25.67;;;;;;;16.77;86.30;101445.13;10499694;28;20064;-80
2021/09/17 08:49:11;;;;;;;32.13;23.90;;;;;;;16.87;84.87;101442.50;10503182;28;20059;-81
2021/09/17 08:54:13;;;;;;;37.08;25.63;;;;;;;17.22;85.38;101442.44;10501022;28;20056;-81
2021/09/17 08:59:14;;;;;;;31.15;25.25;;;;;;;17.33;84.08;101445.00;10523143;28;20060;-81
2021/09/17 09:04:27;;;;;;;29.35;23.73;;;;;;;17.51;81.09;101449.31;10514585;28;20380;-81
2021/09/17 09:09:29;;;;;;;28.05;22.88;;;;;;;17.56;81.25;101444.06;10528391;28;20058;-81
2021/09/17 09:14:30;;;;;;;27.73;24.30;;;;;;;17.43;81.42;101446.72;10513816;28;20139;-81
2021/09/17 09:19:37;;;;;;;28.77;24.65;;;;;;;17.71;80.59;101451.84;10522746;28;20114;-81
2021/09/17 09:24:42;;;;;;;32.15;24.73;;;;;;;17.47;81.15;101447.56;10503101;28;20048;-81
2021/09/17 09:29:51;;;;;;;30.57;23.47;;;;;;;17.57;82.22;101446.66;10513718;28;20056;-81
2021/09/17 09:34:58;;;;;;;28.17;23.33;;;;;;;17.49;83.58;101453.69;10507063;28;20070;-82
2021/09/17 09:40:09;;;;;;;27.95;21.65;;;;;;;17.49;84.08;101444.09;10529871;28;20519;-81
2021/09/17 09:45:19;;;;;;;28.17;22.35;;;;;;;17.60;82.37;101443.19;10531912;28;20051;-82
2021/09/17 09:50:29;;;;;;;31.40;24.65;;;;;;;17.67;82.06;101450.97;10499712;28;20048;-81
2021/09/17 09:55:30;;;;;;;36.85;28.15;;;;;;;17.61;80.51;101451.00;10461098;28;20056;-81
2021/09/17 10:00:32;;;;;;;37.60;28.08;;;;;;;17.37;82.56;101444.13;10471416;28;20143;-81
2021/09/17 10:05:35;;;;;;;33.20;27.17;;;;;;;17.72;82.60;101449.25;10485616;28;20061;-82
2021/09/17 10:10:37;;;;;;;32.00;25.63;;;;;;;18.00;82.50;101446.50;10485579;28;20139;-81
2021/09/17 10:15:39;;;;;;;33.17;26.67;;;;;;;17.94;82.71;101446.53;10486846;28;20060;-81
2021/09/17 10:20:44;;;;;;;28.65;24.75;;;;;;;18.05;81.85;101446.47;10498799;28;20072;-80
2021/09/17 10:26:07;;;;;;;30.50;25.75;;;;;;;18.05;80.64;101444.72;10486551;28;20059;-81
2021/09/17 10:31:15;;;;;;;32.63;27.58;;;;;;;17.90;80.76;101443.03;10485850;28;20520;-80
2021/09/17 10:36:43;;;;;;;34.95;27.00;;;;;;;18.14;81.56;101444.63;10476198;28;20053;-81
2021/09/17 10:42:19;;;;;;;31.42;24.90;;;;;;;18.46;81.49;101446.16;10455505;28;20102;-81
2021/09/17 10:47:38;;;;;;;35.22;26.35;;;;;;;18.53;82.77;101434.75;10454955;28;20570;-81
2021/09/17 10:52:43;;;;;;;31.13;24.63;;;;;;;18.80;80.16;101445.00;10477595;28;20063;-82
2021/09/17 10:58:24;;;;;;;32.45;26.25;;;;;;;18.74;77.97;101436.34;10532499;28;20515;-81
2021/09/17 11:03:55;;;;;;;32.85;26.33;;;;;;;18.68;80.91;101432.03;10480933;28;20064;-81
2021/09/17 11:09:07;;;;;;;31.63;26.20;;;;;;;19.06;78.34;101425.53;10500069;28;20056;-82
2021/09/17 11:14:12;;;;;;;29.95;24.42;;;;;;;19.00;78.12;101429.09;10511332;28;20067;-81
2021/09/17 11:19:15;;;;;;;35.20;27.45;;;;;;;19.07;78.66;101424.66;10519175;28;20071;-82
2021/09/17 11:24:25;;;;;;;37.33;27.52;;;;;;;19.11;78.04;101420.22;10503888;28;20068;-82
2021/09/17 11:29:26;;;;;;;39.10;27.60;;;;;;;19.01;77.09;101424.72;10525662;28;20053;-82
2021/09/17 11:34:28;;;;;;;36.08;26.65;;;;;;;19.11;77.83;101420.22;10506302;28;20135;-82
2021/09/17 11:39:36;;;;;;;35.50;29.02;;;;;;;19.59;75.66;101410.91;10493458;28;20078;-81
2021/09/17 11:44:40;;;;;;;34.80;27.88;;;;;;;19.91;71.45;101406.97;10503075;28;20056;-81
2021/09/17 11:49:44;;;;;;;38.53;29.93;;;;;;;19.95;72.88;101409.53;10508374;28;20495;-82
2021/09/17 11:55:03;;;;;;;37.65;28.45;;;;;;;20.46;71.76;101412.25;10490979;28;20054;-81
2021/09/17 12:00:26;;;;;;;45.75;28.63;;;;;;;20.19;71.92;101410.03;10508451;28;20067;-82
2021/09/17 12:05:29;;;;;;;35.75;27.23;;;;;;;20.71;71.01;101396.06;10514607;28;20052;-82
2021/09/17 12:10:33;;;;;;;32.92;25.08;;;;;;;21.05;66.76;101386.63;10494019;28;20412;-82
2021/09/17 12:15:38;;;;;;;26.52;21.50;;;;;;;20.75;65.91;101389.84;10506988;28;20052;-82
2021/09/17 12:20:49;;;;;;;25.58;20.17;;;;;;;20.65;67.62;101391.78;10541761;28;20519;-83
2021/09/17 12:25:51;;;;;;;24.92;19.27;;;;;;;20.76;67.37;101392.47;10525815;28;20522;-82
2021/09/17 12:30:53;;;;;;;22.40;18.95;;;;;;;20.70;67.47;101386.41;10507688;28;20062;-82
2021/09/17 12:36:07;;;;;;;22.15;19.17;;;;;;;20.62;66.49;101378.69;10506890;28;20418;-82
2021/09/17 12:41:11;;;;;;;28.33;17.17;;;;;;;20.67;63.85;101379.47;10506331;28;20060;-82
2021/09/17 12:46:34;;;;;;;19.27;15.10;;;;;;;20.56;65.26;101382.28;10509892;28;20077;-83
2021/09/17 12:51:36;;;;;;;19.38;14.25;;;;;;;20.59;67.51;101383.97;10508246;28;20434;-83
2021/09/17 12:56:38;;;;;;;16.63;13.30;;;;;;;21.15;61.86;101376.75;10513853;28;20048;-83
2021/09/17 13:01:41;;;;;;;17.80;12.38;;;;;;;20.88;63.33;101367.69;10506703;28;20428;-84
2021/09/17 13:06:44;;;;;;;16.85;12.25;;;;;;;21.20;61.40;101371.41;10527362;28;20506;-83
2021/09/17 13:11:45;;;;;;;17.92;12.52;;;;;;;20.80;62.64;101372.19;10514372;28;20128;-83
2021/09/17 13:16:47;;;;;;;18.77;13.18;;;;;;;20.55;64.09;101366.53;10513164;28;20052;-84
2021/09/17 13:21:48;;;;;;;16.67;12.20;;;;;;;20.58;64.73;101369.09;10541823;28;20447;-86
2021/09/17 13:26:50;;;;;;;17.08;12.73;;;;;;;20.32;65.26;101375.66;10512132;28;20060;-84
2021/09/17 13:31:51;;;;;;;17.02;12.02;;;;;;;20.21;66.85;101368.84;10513733;28;20056;-82
2021/09/17 13:36:53;;;;;;;19.48;11.48;;;;;;;20.37;64.82;101365.06;10513597;28;20059;-83
2021/09/17 13:41:55;;;;;;;18.85;11.98;;;;;;;20.49;65.28;101356.13;10520178;28;20052;-82
2021/09/17 13:46:56;;;;;;;17.25;11.93;;;;;;;20.42;64.77;101362.34;10520496;28;20412;-84
2021/09/17 13:51:58;;;;;;;15.48;11.85;;;;;;;20.30;65.79;101356.41;10509707;28;20067;-83
2021/09/17 13:56:59;;;;;;;17.98;13.02;;;;;;;20.24;66.10;101351.25;10498568;28;20492;-83
2021/09/17 14:02:01;;;;;;;16.45;12.18;;;;;;;20.33;65.88;101340.59;10494554;28;20141;-84
2021/09/17 14:07:03;;;;;;;19.52;12.93;;;;;;;20.37;66.60;101344.06;10515856;28;20135;-82
2021/09/17 14:12:05;;;;;;;20.58;14.77;;;;;;;20.47;65.12;101336.88;10515060;28;20060;-82
2021/09/17 14:17:06;;;;;;;17.90;12.20;;;;;;;20.42;68.62;101343.94;10510610;28;20052;-82
2021/09/17 14:22:08;;;;;;;18.85;13.07;;;;;;;20.19;69.30;101337.31;10519980;28;20056;-82
2021/09/17 14:27:09;;;;;;;19.45;14.32;;;;;;;20.22;69.48;101337.28;10533598;28;20632;-82
2021/09/17 14:32:11;;;;;;;21.10;15.23;;;;;;;20.29;70.28;101328.41;10510236;28;20060;-82
2021/09/17 14:37:12;;;;;;;24.23;16.10;;;;;;;20.15;72.26;101333.03;10499932;28;20385;-82
2021/09/17 14:42:14;;;;;;;20.23;14.20;;;;;;;20.16;71.96;101326.88;10510022;28;20404;-83
2021/09/17 14:47:16;;;;;;;18.30;12.70;;;;;;;20.21;72.36;101322.41;10509644;28;20482;-82
2021/09/17 14:52:18;;;;;;;19.52;14.32;;;;;;;20.07;72.45;101324.41;10509590;28;20060;-82
2021/09/17 14:57:19;;;;;;;17.08;13.20;;;;;;;19.94;73.40;101323.75;10524993;28;20512;-82
2021/09/17 15:02:21;;;;;;;17.63;11.95;;;;;;;19.96;71.56;101323.72;10498148;28;20094;-83
2021/09/17 15:07:23;;;;;;;16.63;11.15;;;;;;;20.01;73.03;101328.00;10480383;28;20463;-82
2021/09/17 15:12:24;;;;;;;14.43;10.95;;;;;;;19.90;72.90;101326.44;10479478;28;20064;-82
2021/09/17 15:17:26;;;;;;;15.43;12.23;;;;;;;19.75;73.31;101322.31;10484263;28;20057;-82
2021/09/17 15:22:28;;;;;;;17.17;11.48;;;;;;;19.66;73.15;101323.31;10504773;28;20087;-82
2021/09/17 15:27:29;;;;;;;10.40;8.50;;;;;;;19.64;72.97;101319.84;10509922;28;20048;-82
2021/09/17 15:32:31;;;;;;;10.00;8.07;;;;;;;19.71;73.10;101323.25;10478849;28;20056;-82
2021/09/17 15:37:33;;;;;;;9.27;8.27;;;;;;;19.61;72.54;101327.75;10478440;28;20071;-82
2021/09/17 15:42:35;;;;;;;11.50;7.72;;;;;;;19.66;72.96;101325.06;10513367;28;20411;-82
2021/09/17 15:47:37;;;;;;;8.95;6.80;;;;;;;19.61;74.72;101322.50;10495977;28;20041;-82
2021/09/17 15:52:41;;;;;;;11.35;7.93;;;;;;;19.50;72.70;101321.75;10530602;28;20075;-82
2021/09/17 15:57:43;;;;;;;8.02;6.65;;;;;;;19.45;78.33;101326.19;10520488;28;20048;-82
2021/09/17 16:02:46;;;;;;;7.68;6.60;;;;;;;19.31;77.29;101324.66;10510527;28;20052;-82
2021/09/17 16:07:49;;;;;;;9.25;7.32;;;;;;;19.06;81.66;101326.72;10511145;28;20060;-82
2021/09/17 16:12:50;;;;;;;18.05;12.55;;;;;;;18.89;79.26;101335.66;10509761;28;20083;-82
2021/09/17 16:17:52;;;;;;;15.07;13.00;;;;;;;18.77;82.46;101340.16;10507487;28;20059;-82
2021/09/17 16:22:54;;;;;;;18.33;14.05;;;;;;;18.87;80.89;101332.19;10502669;28;20060;-81
2021/09/17 16:27:56;;;;;;;21.80;15.18;;;;;;;18.68;82.19;101334.16;10508593;28;20049;-82
2021/09/17 16:32:59;;;;;;;21.77;16.25;;;;;;;18.62;82.97;101337.69;10496300;28;20072;-82
2021/09/17 16:38:01;;;;;;;24.15;15.52;;;;;;;18.57;84.43;101344.72;10501487;28;20392;-82
2021/09/17 16:43:07;;;;;;;16.52;14.77;;;;;;;18.60;85.01;101343.81;10516838;28;20087;-82
2021/09/17 16:48:09;;;;;;;22.90;15.75;;;;;;;18.47;86.88;101345.69;10544814;28;20583;-82
2021/09/17 16:53:10;;;;;;;19.67;14.77;;;;;;;18.45;86.04;101343.09;10544437;28;20067;-82
2021/09/17 16:58:13;;;;;;;19.30;15.20;;;;;;;18.48;86.16;101335.19;10532867;28;20046;-82
2021/09/17 17:03:14;;;;;;;19.85;15.48;;;;;;;18.42;87.80;101347.50;10488491;28;20501;-82
2021/09/17 17:08:16;;;;;;;23.35;13.88;;;;;;;18.26;89.44;101344.13;10507308;28;20087;-81
2021/09/17 17:13:21;;;;;;;16.10;12.95;;;;;;;18.25;89.78;101342.41;10527992;28;20101;-81
2021/09/17 17:18:22;;;;;;;15.43;13.80;;;;;;;18.12;91.16;101339.03;10524434;28;20451;-81
2021/09/17 17:23:24;;;;;;;16.10;13.05;;;;;;;18.11;90.42;101326.81;10504437;28;20051;-81
2021/09/17 17:28:26;;;;;;;15.48;13.80;;;;;;;18.05;90.94;101326.00;10509089;28;20056;-81
2021/09/17 17:33:27;;;;;;;15.90;12.68;;;;;;;17.99;92.44;101332.16;10508038;28;20052;-81
2021/09/17 17:38:29;;;;;;;15.98;12.23;;;;;;;17.84;94.14;101334.88;10507261;28;20044;-81
2021/09/17 17:43:31;;;;;;;16.90;13.00;;;;;;;17.73;93.91;101338.44;10499405;28;20064;-81
2021/09/17 17:48:33;;;;;;;16.17;12.30;;;;;;;17.60;94.72;101342.00;10501667;28;20056;-81
2021/09/17 17:53:34;;;;;;;12.18;9.95;;;;;;;17.35;96.78;101338.63;10502544;28;20048;-81
2021/09/17 17:58:36;;;;;;;16.20;12.65;;;;;;;17.24;95.90;101345.66;10516974;28;20051;-81
2021/09/17 18:03:38;;;;;;;20.08;13.18;;;;;;;17.15;96.49;101343.97;10523895;28;20051;-81
2021/09/17 18:08:41;;;;;;;16.23;13.35;;;;;;;17.10;97.33;101355.31;10523146;28;20052;-81
2021/09/17 18:13:42;;;;;;;15.32;11.95;;;;;;;17.11;97.67;101362.28;10493849;28;20506;-81
2021/09/17 18:18:44;;;;;;;16.80;12.93;;;;;;;16.97;98.46;101362.34;10508966;28;20054;-81
2021/09/17 18:23:45;;;;;;;13.30;11.90;;;;;;;16.95;99.34;101364.94;10525376;28;20052;-81
2021/09/17 18:28:49;;;;;;;17.13;14.50;;;;;;;16.85;100.00;101367.63;10522385;28;20415;-81
2021/09/17 18:33:52;;;;;;;20.88;16.92;;;;;;;16.98;100.00;101371.91;10506387;28;20470;-81
2021/09/17 18:38:53;;;;;;;21.85;17.92;;;;;;;17.01;99.98;101377.13;10506976;28;20040;-81
2021/09/17 18:43:55;;;;;;;22.38;18.92;;;;;;;17.01;99.66;101381.47;10500489;28;20490;-81
2021/09/17 18:48:56;;;;;;;28.50;22.00;;;;;;;16.92;100.00;101383.25;10506448;28;20488;-81
2021/09/17 18:53:58;;;;;;;24.95;18.92;;;;;;;16.95;99.50;101391.06;10498649;28;20489;-81
2021/09/17 18:59:00;;;;;;;20.35;17.13;;;;;;;16.68;100.00;101389.38;10526497;28;20051;-80
2021/09/17 19:04:02;;;;;;;19.60;15.57;;;;;;;16.54;100.00;101392.88;10506143;28;20504;-80
2021/09/17 19:09:04;;;;;;;19.80;15.15;;;;;;;16.43;100.00;101390.25;10502707;28;20052;-80
2021/09/17 19:14:05;;;;;;;15.25;12.90;;;;;;;16.29;100.00;101395.50;10508895;28;20048;-80
2021/09/17 19:19:07;;;;;;;15.68;11.40;;;;;;;16.19;100.00;101398.97;10505944;28;20492;-80
2021/09/17 19:24:09;;;;;;;14.40;12.15;;;;;;;15.89;100.00;101395.47;10498445;28;20052;-80
2021/09/17 19:29:10;;;;;;;26.45;14.27;;;;;;;15.87;100.00;101415.44;10512315;28;20075;-80
2021/09/17 19:34:12;;;;;;;18.20;13.75;;;;;;;15.74;100.00;101405.00;10489641;28;20056;-80
2021/09/17 19:39:14;;;;;;;18.52;15.00;;;;;;;15.66;100.00;101411.94;10498486;28;20071;-80
2021/09/17 19:44:15;;;;;;;16.55;14.55;;;;;;;15.52;100.00;101417.91;10501578;28;20052;-80
2021/09/17 19:49:17;;;;;;;20.52;15.73;;;;;;;15.32;100.00;101417.84;10500201;28;20056;-80
2021/09/17 19:54:18;;;;;;;16.95;13.75;;;;;;;15.36;100.00;101421.31;10499306;28;20074;-80
2021/09/17 19:59:20;;;;;;;17.95;13.35;;;;;;;15.18;100.00;101424.72;10495190;28;20048;-80
2021/09/17 20:04:22;;;;;;;17.23;14.10;;;;;;;14.92;100.00;101435.00;10522623;28;20059;-80
2021/09/17 20:09:24;;;;;;;14.90;13.32;;;;;;;15.02;100.00;101426.38;10510544;28;20051;-80
2021/09/17 20:14:25;;;;;;;13.50;12.15;;;;;;;14.97;100.00;101427.19;10527439;28;20055;-80
2021/09/17 20:19:27;;;;;;;21.60;13.27;;;;;;;14.85;100.00;101433.19;10523874;28;20524;-80
2021/09/17 20:24:28;;;;;;;17.85;12.85;;;;;;;14.82;100.00;101434.06;10527497;28;20063;-81
2021/09/17 20:29:30;;;;;;;14.60;11.15;;;;;;;14.67;100.00;101446.97;10545303;28;20126;-81
2021/09/17 20:34:33;;;;;;;14.48;12.25;;;;;;;14.72;100.00;101444.41;10525362;28;20060;-80
2021/09/17 20:39:34;;;;;;;13.50;11.90;;;;;;;14.59;100.00;101443.44;10520500;28;20052;-81
2021/09/17 20:44:41;;;;;;;14.65;11.85;;;;;;;14.50;100.00;101441.63;10520583;28;20113;-81
2021/09/17 20:49:43;;;;;;;14.77;12.10;;;;;;;14.28;100.00;101453.53;10526489;28;20052;-80
2021/09/17 20:54:47;;;;;;;12.13;10.55;;;;;;;14.29;100.00;101449.22;10494908;28;20087;-80
2021/09/17 20:59:48;;;;;;;16.08;11.52;;;;;;;14.31;100.00;101447.50;10515912;28;20505;-80
2021/09/17 21:04:50;;;;;;;17.77;11.77;;;;;;;14.17;100.00;101457.78;10542756;28;20059;-80
2021/09/17 21:09:52;;;;;;;13.15;11.65;;;;;;;14.10;100.00;101463.78;10526530;28;20062;-80
2021/09/17 21:14:53;;;;;;;15.38;11.35;;;;;;;14.05;100.00;101460.25;10524856;28;20060;-80
2021/09/17 21:19:55;;;;;;;14.30;10.65;;;;;;;13.99;100.00;101463.66;10535008;28;20047;-81
2021/09/17 21:24:57;;;;;;;12.60;10.18;;;;;;;13.98;100.00;101461.06;10496151;28;20044;-81
2021/09/17 21:29:58;;;;;;;13.50;10.70;;;;;;;13.79;100.00;101463.47;10493285;28;20064;-81
2021/09/17 21:35:00;;;;;;;13.20;11.00;;;;;;;13.82;100.00;101466.94;10516242;28;20404;-80
2021/09/17 21:40:03;;;;;;;13.68;10.38;;;;;;;13.87;100.00;101466.13;10483114;28;20048;-80
2021/09/17 21:45:06;;;;;;;14.52;11.32;;;;;;;13.82;100.00;101466.94;10539424;28;20392;-80
2021/09/17 21:50:08;;;;;;;11.32;10.13;;;;;;;13.73;100.00;101462.50;10504943;28;20048;-80
2021/09/17 21:55:10;;;;;;;9.85;8.85;;;;;;;13.65;100.00;101459.81;10470910;28;20528;-80
2021/09/17 22:00:12;;;;;;;10.00;8.52;;;;;;;13.59;100.00;101462.34;10470366;28;20078;-80
2021/09/17 22:05:14;;;;;;;13.27;11.05;;;;;;;13.45;100.00;101458.69;10469480;28;20475;-80
2021/09/17 22:10:16;;;;;;;12.95;9.38;;;;;;;13.34;100.00;101462.88;10457273;28;20107;-80
2021/09/17 22:15:17;;;;;;;10.88;9.38;;;;;;;13.20;100.00;101460.91;10467775;28;20048;-80
2021/09/17 22:20:19;;;;;;;11.48;10.05;;;;;;;13.13;100.00;101476.41;10503991;28;20079;-80
2021/09/17 22:25:20;;;;;;;10.23;8.70;;;;;;;13.11;100.00;101473.78;10479197;28;20083;-81
2021/09/17 22:30:22;;;;;;;9.07;7.95;;;;;;;12.96;100.00;101473.56;10463584;28;20053;-80